Thomasboro, Illinois
Current Conditions -  °F | °C
As of 12:50 PM on Thursday 23 Oct 2014 (Local Time) from KTIP Reporting Station
Clear Clear  
Wind Chill: 58°   Ceiling: Unl
Heat Index: 58°   Visibility: 10mi
Dew Point: 43°   Wind: 8mph
Humidity: 56%   Direction: 210°SSW
Pressure: 30.18"   Gusts: NA
Location:  40.24°N, 88.18°W
Report Text: KTIP 231750Z AUTO 21007KT 10SM CLR 15/06 A3018 RMK AO2 T01470061 10156 20027
Loading
Personal Weather Stations






























Interactive Weather Map
Tropical Storm Tracking
New forecast layout! Learn more

10-Day Weather Forecast

Advertisements
Track Severe Weather on mobile